Time;durP1;ratioP1;P1;durP2;ratioP2;P2;SDS_P1;SDS_P2;PMS_P1;PMS_P2;Temp;Humidity;BMP_temperature;BMP_pressure;BME280_temperature;BME280_humidity;BME280_pressure;Samples;Min_cycle;Max_cycle;Signal;HPM_P1;HPM_P2
2021/12/20 00:00:16;;;;;;;33.60;4.68;;;8.80;99.90;;;;;;6156269;23;20021;-93
2021/12/20 00:02:43;;;;;;;29.92;4.97;;;8.70;99.90;;;;;;6156142;23;20063;-92
2021/12/20 00:05:10;;;;;;;25.33;5.15;;;8.70;99.90;;;;;;6155748;23;20017;-93
2021/12/20 00:07:35;;;;;;;34.55;5.15;;;8.90;99.90;;;;;;6156317;23;20104;-92
2021/12/20 00:10:03;;;;;;;32.75;4.43;;;8.80;99.90;;;;;;6155710;23;20088;-92
2021/12/20 00:12:29;;;;;;;27.10;4.97;;;8.80;99.90;;;;;;6156016;23;20013;-92
2021/12/20 00:14:57;;;;;;;33.95;4.63;;;9.70;99.90;;;;;;6154780;23;20074;-93
2021/12/20 00:17:22;;;;;;;31.92;4.43;;;8.90;99.90;;;;;;6156083;23;20020;-92
2021/12/20 00:19:48;;;;;;;24.30;4.38;;;9.80;99.90;;;;;;6155863;23;20354;-93
2021/12/20 00:22:14;;;;;;;25.23;4.05;;;8.70;99.90;;;;;;6155853;23;20355;-91
2021/12/20 00:24:40;;;;;;;31.15;4.75;;;9.70;99.90;;;;;;6155364;23;20017;-92
2021/12/20 00:27:08;;;;;;;26.30;4.25;;;8.80;99.90;;;;;;6155611;23;20348;-93
2021/12/20 00:29:34;;;;;;;21.30;4.10;;;8.80;99.90;;;;;;6155954;23;20078;-91
2021/12/20 00:32:00;;;;;;;31.67;5.15;;;10.30;99.90;;;;;;6155386;23;20021;-91
2021/12/20 00:34:26;;;;;;;32.42;4.45;;;9.20;99.90;;;;;;6156457;23;20020;-92
2021/12/20 00:37:01;;;;;;;32.47;4.75;;;8.70;99.90;;;;;;6156587;23;20053;-92
2021/12/20 00:42:11;;;;;;;23.50;3.72;;;8.60;99.90;;;;;;6205144;23;20355;-93
2021/12/20 00:44:36;;;;;;;23.58;4.28;;;8.70;99.90;;;;;;6155804;23;20023;-93
2021/12/20 00:47:02;;;;;;;26.00;4.00;;;8.60;99.90;;;;;;6154749;23;20017;-92
2021/12/20 00:49:28;;;;;;;32.00;4.90;;;8.90;99.90;;;;;;6156061;22;20024;-91
2021/12/20 00:51:54;;;;;;;29.80;4.20;;;10.40;99.90;;;;;;6156216;23;20013;-92
2021/12/20 00:54:20;;;;;;;33.42;4.40;;;10.20;99.90;;;;;;6155218;23;20021;-92
2021/12/20 00:56:45;;;;;;;31.63;4.75;;;10.80;99.90;;;;;;6155566;23;20081;-91
2021/12/20 00:59:11;;;;;;;23.42;3.97;;;9.80;99.90;;;;;;6155429;23;20017;-92
2021/12/20 01:01:37;;;;;;;29.58;4.47;;;10.80;99.90;;;;;;6156014;23;20025;-92
2021/12/20 01:04:03;;;;;;;31.15;4.07;;;10.10;99.90;;;;;;6155934;23;20017;-92
2021/12/20 01:06:29;;;;;;;26.65;4.13;;;8.60;99.90;;;;;;6155688;23;20419;-93
2021/12/20 01:08:55;;;;;;;30.45;4.18;;;8.90;99.90;;;;;;6155438;23;20044;-92
2021/12/20 01:11:25;;;;;;;27.08;4.95;;;10.10;99.90;;;;;;6155430;23;20021;-93
2021/12/20 01:13:51;;;;;;;30.42;4.32;;;8.50;99.90;;;;;;6155631;23;20024;-92
2021/12/20 01:16:17;;;;;;;30.08;3.90;;;8.70;99.90;;;;;;6155472;23;20039;-93
2021/12/20 01:18:42;;;;;;;32.63;4.60;;;10.40;99.90;;;;;;6155430;23;20017;-93
2021/12/20 01:21:08;;;;;;;32.65;3.83;;;9.40;99.90;;;;;;6155229;23;20115;-92
2021/12/20 01:23:36;;;;;;;27.33;5.45;;;10.30;99.90;;;;;;6155245;23;20048;-92
2021/12/20 01:26:03;;;;;;;26.48;3.70;;;10.10;99.90;;;;;;6155082;23;20053;-92
2021/12/20 01:28:29;;;;;;;31.23;4.45;;;8.60;99.90;;;;;;6155609;23;20021;-92
2021/12/20 01:30:54;;;;;;;28.58;4.57;;;8.50;99.90;;;;;;6155532;23;20478;-92
2021/12/20 01:33:22;;;;;;;28.38;3.60;;;8.50;99.90;;;;;;6156155;23;20021;-92
2021/12/20 01:35:48;;;;;;;28.77;4.32;;;9.10;99.90;;;;;;6155466;23;20072;-92
2021/12/20 01:38:14;;;;;;;22.05;4.35;;;8.70;99.90;;;;;;6154716;23;20021;-92
2021/12/20 01:40:39;;;;;;;27.15;3.58;;;8.70;99.90;;;;;;6155615;23;20017;-92
2021/12/20 01:43:10;;;;;;;22.73;3.63;;;10.80;99.90;;;;;;6155609;23;20028;-93
2021/12/20 01:45:36;;;;;;;25.55;3.65;;;8.90;99.90;;;;;;6155767;23;20100;-92
2021/12/20 01:48:05;;;;;;;19.25;3.13;;;8.90;99.90;;;;;;6155201;23;20049;-92
2021/12/20 01:50:48;;;;;;;29.27;3.70;;;8.70;99.90;;;;;;6155265;23;20052;-92
2021/12/20 01:53:18;;;;;;;20.83;3.22;;;10.70;99.90;;;;;;6155301;23;20025;-92
2021/12/20 01:55:44;;;;;;;28.75;3.58;;;8.60;99.90;;;;;;6155773;23;20013;-92
2021/12/20 01:58:10;;;;;;;22.20;3.50;;;8.80;99.90;;;;;;6155474;23;20449;-92
2021/12/20 02:00:37;;;;;;;18.98;2.30;;;9.80;99.90;;;;;;6155611;23;20013;-92
2021/12/20 02:03:03;;;;;;;8.70;1.98;;;9.90;99.90;;;;;;6155275;23;20346;-92
2021/12/20 02:08:16;;;;;;;14.68;2.40;;;8.60;99.90;;;;;;6205488;23;20051;-91
2021/12/20 02:10:46;;;;;;;18.80;2.80;;;8.60;99.90;;;;;;6155102;23;20049;-92
2021/12/20 02:13:13;;;;;;;17.15;3.17;;;8.70;99.90;;;;;;6155050;23;20010;-91
2021/12/20 02:15:39;;;;;;;17.10;3.13;;;9.40;99.90;;;;;;6155480;23;20021;-91
2021/12/20 02:18:04;;;;;;;8.75;2.22;;;10.60;99.90;;;;;;6179835;23;20024;-92
2021/12/20 02:20:33;;;;;;;18.83;2.58;;;10.90;99.90;;;;;;6155742;23;20052;-92
2021/12/20 02:23:00;;;;;;;21.77;2.63;;;10.60;99.90;;;;;;6155385;23;20099;-91
2021/12/20 02:25:28;;;;;;;15.68;2.72;;;10.70;99.90;;;;;;6154975;23;20087;-92
2021/12/20 02:27:54;;;;;;;12.27;2.75;;;8.70;99.90;;;;;;6155177;23;20020;-92
2021/12/20 02:38:26;;;;;;;14.65;2.60;;;10.80;99.90;;;;;;6204576;23;20018;-92
2021/12/20 02:41:07;;;;;;;16.48;2.75;;;9.20;99.90;;;;;;6154973;23;20052;-91
2021/12/20 02:43:37;;;;;;;14.10;2.67;;;9.70;99.90;;;;;;6155050;23;20013;-92
2021/12/20 02:46:06;;;;;;;20.60;3.13;;;10.80;99.90;;;;;;6154787;23;20017;-92
2021/12/20 02:48:32;;;;;;;17.90;3.33;;;8.70;99.90;;;;;;6155744;23;20036;-91
2021/12/20 02:50:58;;;;;;;14.52;2.42;;;9.20;99.90;;;;;;6156192;23;20025;-91
2021/12/20 02:53:23;;;;;;;13.00;2.67;;;9.80;99.90;;;;;;6155584;23;20024;-92
2021/12/20 02:55:49;;;;;;;20.38;2.78;;;10.80;99.90;;;;;;6156466;23;20423;-92
2021/12/20 02:58:15;;;;;;;16.08;2.72;;;8.80;99.90;;;;;;6156336;23;20017;-92
2021/12/20 03:00:41;;;;;;;20.08;2.60;;;8.90;99.90;;;;;;6156480;23;20058;-91
2021/12/20 03:03:08;;;;;;;16.17;2.85;;;8.80;99.90;;;;;;6156193;23;20025;-91
2021/12/20 03:05:34;;;;;;;14.98;2.47;;;10.60;99.90;;;;;;6156411;23;20095;-92
2021/12/20 03:08:01;;;;;;;15.45;2.17;;;8.80;99.90;;;;;;6155968;23;20100;-91
2021/12/20 03:10:29;;;;;;;11.40;2.10;;;9.80;99.90;;;;;;6155804;23;20100;-92
2021/12/20 03:12:56;;;;;;;16.77;2.50;;;8.60;99.90;;;;;;6156555;23;20028;-92
2021/12/20 03:15:25;;;;;;;8.60;1.88;;;8.50;99.90;;;;;;6156274;23;20070;-92
2021/12/20 03:17:53;;;;;;;15.00;2.30;;;8.80;99.90;;;;;;6156332;23;20443;-92
2021/12/20 03:20:20;;;;;;;17.20;2.60;;;8.60;99.90;;;;;;6155845;23;20021;-91
2021/12/20 03:22:46;;;;;;;11.38;2.10;;;8.60;99.90;;;;;;6156168;23;20021;-91
2021/12/20 03:25:12;;;;;;;13.23;2.30;;;9.70;99.90;;;;;;6156003;23;20009;-92
2021/12/20 03:27:38;;;;;;;10.45;1.90;;;8.50;99.90;;;;;;6156096;23;20461;-92
2021/12/20 03:30:06;;;;;;;16.67;2.58;;;10.10;99.90;;;;;;6155674;23;20021;-91
2021/12/20 03:32:32;;;;;;;11.75;2.75;;;8.40;99.90;;;;;;6156379;23;20025;-92
2021/12/20 03:34:58;;;;;;;9.48;2.08;;;10.30;99.90;;;;;;6156251;23;20462;-91
2021/12/20 03:37:24;;;;;;;8.98;2.05;;;8.70;99.90;;;;;;6155786;23;20017;-92
2021/12/20 03:39:49;;;;;;;11.65;2.33;;;9.80;99.90;;;;;;6155586;23;20028;-91
2021/12/20 03:42:17;;;;;;;13.98;2.40;;;10.50;99.90;;;;;;6154877;23;20492;-91
2021/12/20 03:44:44;;;;;;;9.38;2.03;;;10.10;99.90;;;;;;6156432;23;20013;-92
2021/12/20 03:47:12;;;;;;;10.07;2.10;;;10.50;99.90;;;;;;6155376;23;20017;-94
2021/12/20 03:49:38;;;;;;;7.47;1.90;;;10.30;99.90;;;;;;6156102;23;20017;-95
2021/12/20 03:52:04;;;;;;;11.25;2.28;;;8.30;99.90;;;;;;6156330;23;20332;-94
2021/12/20 03:54:31;;;;;;;12.75;2.17;;;8.20;99.90;;;;;;6155766;23;20040;-94
2021/12/20 03:56:57;;;;;;;12.73;2.35;;;8.40;99.90;;;;;;6156419;23;20381;-94
2021/12/20 03:59:22;;;;;;;9.73;2.15;;;8.20;99.90;;;;;;6154962;23;20041;-94
2021/12/20 04:01:50;;;;;;;13.38;2.20;;;10.20;99.90;;;;;;6155811;23;20032;-93
2021/12/20 04:04:16;;;;;;;11.15;1.90;;;10.20;99.90;;;;;;6156237;23;20369;-94
2021/12/20 04:06:41;;;;;;;9.70;1.80;;;10.10;99.90;;;;;;6155852;23;20082;-94
2021/12/20 04:09:07;;;;;;;8.82;1.85;;;10.00;99.90;;;;;;6155956;23;20095;-94
2021/12/20 04:11:33;;;;;;;9.10;2.00;;;9.50;99.90;;;;;;6155896;23;20029;-94
2021/12/20 04:13:59;;;;;;;6.50;1.70;;;10.20;99.90;;;;;;6155722;23;20013;-94
2021/12/20 04:16:25;;;;;;;13.50;2.33;;;10.30;99.90;;;;;;6155460;23;20096;-94
2021/12/20 04:18:51;;;;;;;12.52;2.08;;;9.90;99.90;;;;;;6155623;23;20047;-94
2021/12/20 04:21:17;;;;;;;8.68;1.90;;;10.30;99.90;;;;;;6155625;23;20104;-91
2021/12/20 04:23:42;;;;;;;12.20;2.20;;;9.00;99.90;;;;;;6155614;23;20044;-93
2021/12/20 04:26:08;;;;;;;11.13;2.72;;;9.40;99.90;;;;;;6155531;23;20025;-93
2021/12/20 04:28:34;;;;;;;7.40;1.50;;;8.70;99.90;;;;;;6155741;23;20018;-92
2021/12/20 04:30:59;;;;;;;7.05;1.60;;;10.10;99.90;;;;;;6155902;23;20013;-93
2021/12/20 04:33:25;;;;;;;7.55;1.52;;;9.40;99.90;;;;;;6155715;23;20017;-93
2021/12/20 04:35:51;;;;;;;8.98;1.83;;;9.70;99.90;;;;;;6156150;23;20017;-92
2021/12/20 04:38:17;;;;;;;14.00;2.10;;;9.10;99.90;;;;;;6155250;23;20292;-92
2021/12/20 04:40:43;;;;;;;14.00;2.03;;;9.20;99.90;;;;;;6155950;23;20104;-93
2021/12/20 04:43:09;;;;;;;14.02;2.00;;;8.00;99.90;;;;;;6155385;23;20041;-92
2021/12/20 04:45:35;;;;;;;16.27;2.10;;;9.40;99.90;;;;;;6155498;23;20020;-92
2021/12/20 04:48:03;;;;;;;13.48;2.85;;;9.60;99.90;;;;;;6152237;23;20103;-93
2021/12/20 04:50:29;;;;;;;11.23;2.42;;;9.30;99.90;;;;;;6154415;23;20025;-93
2021/12/20 04:52:56;;;;;;;13.63;2.15;;;9.50;99.90;;;;;;6155489;23;20021;-93
2021/12/20 04:55:24;;;;;;;12.13;2.05;;;7.60;99.90;;;;;;6155671;23;20016;-93
2021/12/20 04:57:50;;;;;;;8.38;1.73;;;9.10;99.90;;;;;;6155545;23;20105;-93
2021/12/20 05:00:21;;;;;;;11.15;1.55;;;8.90;99.90;;;;;;6155560;23;20056;-93
2021/12/20 05:02:48;;;;;;;10.63;1.77;;;9.60;99.90;;;;;;6155733;23;20478;-92
2021/12/20 05:05:13;;;;;;;12.48;2.22;;;9.10;99.90;;;;;;6155303;23;20021;-92
2021/12/20 05:07:40;;;;;;;8.55;1.58;;;8.80;99.90;;;;;;6155780;23;20028;-92
2021/12/20 05:10:11;;;;;;;13.50;2.17;;;8.90;99.90;;;;;;6155211;23;20021;-91
2021/12/20 05:12:37;;;;;;;8.15;1.52;;;7.20;99.90;;;;;;6155731;23;20017;-93
2021/12/20 05:15:03;;;;;;;13.15;2.10;;;7.50;99.90;;;;;;6155551;23;20052;-93
2021/12/20 05:17:29;;;;;;;13.23;1.90;;;7.10;99.90;;;;;;6155348;23;20096;-92
2021/12/20 05:19:55;;;;;;;12.85;2.20;;;7.70;99.90;;;;;;6155222;23;20028;-93
2021/12/20 05:22:21;;;;;;;12.13;2.10;;;9.10;99.90;;;;;;6155117;23;20017;-92
2021/12/20 05:24:47;;;;;;;9.15;1.70;;;8.50;99.90;;;;;;6155707;23;20017;-92
2021/12/20 05:27:13;;;;;;;15.45;2.45;;;8.90;99.90;;;;;;6155357;23;20052;-92
2021/12/20 05:29:39;;;;;;;11.57;2.53;;;9.10;99.90;;;;;;6155492;23;20021;-92
2021/12/20 05:32:06;;;;;;;13.82;1.90;;;7.90;99.90;;;;;;6155017;23;20091;-88
2021/12/20 05:34:34;;;;;;;12.45;2.00;;;7.20;99.90;;;;;;6155790;23;20297;-91
2021/12/20 05:37:00;;;;;;;7.38;1.65;;;8.90;99.90;;;;;;6155020;23;20013;-91
2021/12/20 05:39:26;;;;;;;13.25;2.30;;;8.80;99.90;;;;;;6154873;23;20092;-92
2021/12/20 05:41:52;;;;;;;13.02;2.08;;;8.90;99.90;;;;;;6179913;23;20013;-84
2021/12/20 05:44:18;;;;;;;11.05;1.92;;;9.30;99.90;;;;;;6179839;23;20478;-87
2021/12/20 05:46:44;;;;;;;7.63;1.70;;;9.30;99.90;;;;;;6155284;23;20024;-92
2021/12/20 05:49:09;;;;;;;16.08;2.05;;;8.60;99.90;;;;;;6155322;23;20027;-91
2021/12/20 05:51:35;;;;;;;11.80;2.20;;;8.60;99.90;;;;;;6155839;23;20017;-91
2021/12/20 05:54:01;;;;;;;10.63;2.08;;;8.60;99.90;;;;;;6155343;23;20052;-92
2021/12/20 05:56:27;;;;;;;10.18;2.10;;;7.00;99.90;;;;;;6155060;23;20017;-92
2021/12/20 05:58:52;;;;;;;15.18;2.05;;;7.60;99.90;;;;;;6154107;23;20394;-93
2021/12/20 06:01:18;;;;;;;10.95;1.92;;;9.10;99.90;;;;;;6155149;23;20020;-92
2021/12/20 06:03:44;;;;;;;9.85;2.20;;;8.70;99.90;;;;;;6155781;23;20017;-92
2021/12/20 06:06:11;;;;;;;18.10;2.72;;;9.10;99.90;;;;;;6154744;23;20017;-92
2021/12/20 06:08:37;;;;;;;15.20;2.47;;;9.30;99.90;;;;;;6155976;23;20042;-92
2021/12/20 06:11:02;;;;;;;12.15;2.10;;;9.00;99.90;;;;;;6155257;23;20028;-92
2021/12/20 06:13:28;;;;;;;9.82;1.58;;;9.40;99.90;;;;;;6154943;23;20096;-92
2021/12/20 06:15:54;;;;;;;12.60;2.05;;;7.20;99.90;;;;;;6155484;23;20507;-91
2021/12/20 06:18:19;;;;;;;10.85;2.47;;;9.10;99.90;;;;;;6155374;23;20013;-92
2021/12/20 06:20:45;;;;;;;15.85;1.98;;;9.30;99.90;;;;;;6154943;23;20017;-91
2021/12/20 06:23:12;;;;;;;14.20;2.10;;;9.40;99.90;;;;;;6155597;23;20019;-91
2021/12/20 06:25:38;;;;;;;11.98;1.90;;;9.20;99.90;;;;;;6156492;23;20327;-91
2021/12/20 06:28:04;;;;;;;8.98;2.00;;;8.70;99.90;;;;;;6156109;23;20064;-92
2021/12/20 06:30:30;;;;;;;13.05;1.85;;;8.90;99.90;;;;;;6155936;23;20021;-92
2021/12/20 06:32:55;;;;;;;16.63;2.25;;;7.80;99.90;;;;;;6156761;23;20079;-93
2021/12/20 06:38:18;;;;;;;10.35;2.78;;;9.40;99.90;;;;;;6205668;23;20021;-92
2021/12/20 06:40:44;;;;;;;12.07;2.20;;;7.80;99.90;;;;;;6157812;23;20049;-92
2021/12/20 06:43:10;;;;;;;16.67;2.75;;;5.90;99.90;;;;;;6158281;23;20017;-92
2021/12/20 06:45:38;;;;;;;12.68;1.80;;;7.60;99.90;;;;;;6158977;23;20173;-92
2021/12/20 06:48:05;;;;;;;11.40;2.05;;;8.90;99.90;;;;;;6153688;23;20017;-92
2021/12/20 06:50:31;;;;;;;13.38;2.10;;;7.60;99.90;;;;;;6158174;23;20025;-92
2021/12/20 06:52:58;;;;;;;14.38;2.20;;;7.70;99.90;;;;;;6158115;23;20213;-92
2021/12/20 06:55:24;;;;;;;9.82;2.17;;;7.70;99.90;;;;;;6158307;23;20021;-92
2021/12/20 06:57:50;;;;;;;20.17;3.08;;;10.00;99.90;;;;;;6158024;23;20405;-91
2021/12/20 07:00:16;;;;;;;17.88;2.53;;;7.70;99.90;;;;;;6158239;23;20488;-92
2021/12/20 07:02:43;;;;;;;10.93;1.85;;;7.70;99.90;;;;;;6158436;23;20017;-92
2021/12/20 07:05:09;;;;;;;16.95;2.47;;;8.60;99.90;;;;;;6156955;23;20363;-91
2021/12/20 07:07:35;;;;;;;10.27;2.20;;;7.60;99.90;;;;;;6157975;23;20017;-92
2021/12/20 07:10:04;;;;;;;9.07;1.90;;;8.00;99.90;;;;;;6158449;23;20021;-92
2021/12/20 07:12:32;;;;;;;10.27;2.20;;;7.80;99.90;;;;;;6158454;23;20051;-93
2021/12/20 07:15:00;;;;;;;10.80;2.40;;;7.80;99.90;;;;;;6157357;23;20032;-91
2021/12/20 07:17:26;;;;;;;10.63;2.40;;;7.50;99.90;;;;;;6156920;23;20121;-94
2021/12/20 07:19:57;;;;;;;13.25;2.40;;;9.60;99.90;;;;;;6156793;23;20012;-94
2021/12/20 07:22:24;;;;;;;10.60;2.30;;;7.80;99.90;;;;;;6156347;23;20039;-91
2021/12/20 07:24:50;;;;;;;13.55;2.15;;;9.10;99.90;;;;;;6156656;23;20343;-89
2021/12/20 07:27:18;;;;;;;12.43;2.30;;;9.70;99.90;;;;;;6156317;23;20020;-92
2021/12/20 07:29:46;;;;;;;9.38;2.17;;;9.40;99.90;;;;;;6156798;23;20355;-91
2021/12/20 07:32:12;;;;;;;11.68;2.25;;;9.50;99.90;;;;;;6180543;23;20048;-90
2021/12/20 07:34:39;;;;;;;11.07;1.83;;;8.20;99.90;;;;;;6155176;23;20021;-88
2021/12/20 07:37:06;;;;;;;13.65;2.05;;;9.50;99.90;;;;;;6155146;23;20344;-92
2021/12/20 07:39:33;;;;;;;18.73;2.30;;;7.60;99.90;;;;;;6155635;23;20323;-92
2021/12/20 07:41:59;;;;;;;15.10;2.25;;;9.60;99.90;;;;;;6156015;23;20070;-92
2021/12/20 07:44:25;;;;;;;8.43;2.00;;;7.70;99.90;;;;;;6156092;23;20017;-92
2021/12/20 07:46:52;;;;;;;13.55;2.35;;;8.50;99.90;;;;;;6156062;23;20051;-91
2021/12/20 07:49:17;;;;;;;11.27;2.28;;;7.80;99.90;;;;;;6156356;23;20028;-88
2021/12/20 07:51:45;;;;;;;18.20;3.08;;;7.50;99.90;;;;;;6156249;23;20045;-94
2021/12/20 07:54:11;;;;;;;12.45;2.17;;;8.80;99.90;;;;;;6154119;23;20147;-89
2021/12/20 07:56:38;;;;;;;16.92;2.35;;;8.90;99.90;;;;;;6155249;23;20036;-91
2021/12/20 07:59:04;;;;;;;11.48;2.28;;;9.20;99.90;;;;;;6156097;23;20415;-91
2021/12/20 08:01:33;;;;;;;18.40;1.77;;;9.50;99.90;;;;;;6155779;23;20159;-89
2021/12/20 08:03:59;;;;;;;11.93;1.90;;;7.50;99.90;;;;;;6154906;23;20092;-87
2021/12/20 08:06:25;;;;;;;12.95;2.17;;;7.50;99.90;;;;;;6179106;23;20051;-89
2021/12/20 08:08:50;;;;;;;11.70;2.20;;;8.80;99.90;;;;;;6154931;23;20017;-89
2021/12/20 08:11:16;;;;;;;12.23;2.65;;;8.10;99.90;;;;;;6154853;23;20044;-90
2021/12/20 08:13:47;;;;;;;13.18;2.67;;;7.40;99.90;;;;;;6155339;23;20036;-90
2021/12/20 08:16:15;;;;;;;12.35;2.10;;;7.70;99.90;;;;;;6155327;23;20013;-93
2021/12/20 08:18:43;;;;;;;9.45;2.03;;;5.80;99.90;;;;;;6155567;23;20024;-89
2021/12/20 08:21:09;;;;;;;10.98;2.22;;;9.50;99.90;;;;;;6154799;23;20021;-94
2021/12/20 08:23:38;;;;;;;10.38;1.70;;;7.60;99.90;;;;;;6155670;23;20024;-92
2021/12/20 08:26:04;;;;;;;13.65;2.08;;;6.60;99.90;;;;;;6156078;23;20354;-91
2021/12/20 08:28:31;;;;;;;13.60;1.90;;;7.40;99.90;;;;;;6155298;23;20021;-94
2021/12/20 08:30:59;;;;;;;9.02;1.90;;;7.90;99.90;;;;;;6156302;23;20068;-89
2021/12/20 08:33:25;;;;;;;9.43;1.77;;;7.30;99.90;;;;;;6154988;23;20096;-92
2021/12/20 08:35:51;;;;;;;19.92;2.45;;;7.30;99.90;;;;;;6155901;23;20102;-91
2021/12/20 08:38:18;;;;;;;21.75;2.55;;;8.10;99.90;;;;;;6155097;23;20013;-91
2021/12/20 08:40:46;;;;;;;18.30;3.35;;;7.10;99.90;;;;;;6155801;23;20021;-91
2021/12/20 08:43:12;;;;;;;12.13;2.67;;;8.50;99.90;;;;;;6154725;23;20358;-91
2021/12/20 08:45:37;;;;;;;13.77;2.78;;;7.40;99.90;;;;;;6154841;23;20096;-90
2021/12/20 08:48:03;;;;;;;7.32;1.73;;;7.20;99.90;;;;;;6154083;23;20072;-93
2021/12/20 08:50:29;;;;;;;14.05;2.15;;;7.30;99.90;;;;;;6155320;23;20116;-91
2021/12/20 08:52:55;;;;;;;13.75;2.10;;;6.50;99.90;;;;;;6155146;23;20021;-93
2021/12/20 08:55:30;;;;;;;29.00;2.90;;;7.00;99.90;;;;;;6155774;23;20055;-94
2021/12/20 08:57:59;;;;;;;8.27;1.60;;;6.30;99.90;;;;;;6156512;23;20024;-92
2021/12/20 09:00:29;;;;;;;11.35;1.88;;;8.60;99.90;;;;;;6155479;23;20021;-91
2021/12/20 09:02:55;;;;;;;8.95;1.70;;;7.20;99.90;;;;;;6155992;23;20020;-93
2021/12/20 09:05:24;;;;;;;11.95;1.85;;;9.10;99.90;;;;;;6155608;23;20013;-91
2021/12/20 09:07:55;;;;;;;15.40;2.13;;;7.90;99.90;;;;;;6155730;23;20467;-92
2021/12/20 09:10:21;;;;;;;9.43;1.80;;;8.40;99.90;;;;;;6155091;23;20017;-92
2021/12/20 09:12:47;;;;;;;5.55;1.70;;;8.70;99.90;;;;;;6154931;23;20484;-89
2021/12/20 09:15:16;;;;;;;10.00;2.03;;;8.80;99.90;;;;;;6179177;23;20565;-91
2021/12/20 09:17:45;;;;;;;12.13;2.60;;;7.50;99.90;;;;;;6154446;23;20025;-89
2021/12/20 09:20:12;;;;;;;13.63;2.33;;;7.40;99.90;;;;;;6154894;23;20017;-88
2021/12/20 09:22:49;;;;;;;12.32;2.13;;;9.50;99.90;;;;;;6154684;23;20017;-93
2021/12/20 09:25:18;;;;;;;8.85;2.08;;;7.30;99.90;;;;;;6154579;23;20017;-92
2021/12/20 09:27:44;;;;;;;9.50;2.40;;;7.70;99.90;;;;;;6154860;23;20013;-92
2021/12/20 09:30:11;;;;;;;18.75;2.47;;;7.60;99.90;;;;;;6155718;23;20392;-92
2021/12/20 09:32:37;;;;;;;18.63;2.30;;;7.70;99.90;;;;;;6155964;23;20017;-93
2021/12/20 09:35:03;;;;;;;11.70;2.58;;;8.70;99.90;;;;;;6156107;23;20070;-93
2021/12/20 09:37:29;;;;;;;9.07;2.13;;;7.90;99.90;;;;;;6154970;23;20101;-88
2021/12/20 09:39:55;;;;;;;12.57;2.65;;;9.10;99.90;;;;;;6154875;23;20044;-91
2021/12/20 09:42:22;;;;;;;11.02;2.28;;;8.70;99.90;;;;;;6179837;23;20013;-91
2021/12/20 09:44:48;;;;;;;13.35;2.47;;;7.80;99.90;;;;;;6154673;23;20125;-91
2021/12/20 09:47:14;;;;;;;10.63;2.15;;;9.40;99.90;;;;;;6153719;23;20013;-90
2021/12/20 09:49:40;;;;;;;18.88;2.28;;;9.30;99.90;;;;;;6154780;22;20459;-92
2021/12/20 09:52:07;;;;;;;13.88;2.17;;;9.60;99.90;;;;;;6155157;23;20021;-92
2021/12/20 09:54:33;;;;;;;11.18;2.15;;;8.00;99.90;;;;;;6154897;23;20020;-89
2021/12/20 09:57:02;;;;;;;13.63;2.47;;;9.70;99.90;;;;;;6178199;23;20066;-87
2021/12/20 09:59:30;;;;;;;19.17;2.42;;;8.00;99.90;;;;;;6153637;23;20045;-89
2021/12/20 10:01:58;;;;;;;19.63;2.45;;;10.30;99.90;;;;;;6154667;23;20021;-87
2021/12/20 10:04:24;;;;;;;11.82;2.47;;;8.20;99.90;;;;;;6178804;23;20021;-90
2021/12/20 10:06:58;;;;;;;15.00;2.25;;;8.20;99.90;;;;;;6154105;23;20405;-88
2021/12/20 10:09:33;;;;;;;14.50;2.78;;;8.40;99.90;;;;;;6154447;23;20013;-91
2021/12/20 10:12:16;;;;;;;12.15;2.25;;;10.00;99.90;;;;;;6154740;23;20013;-90
2021/12/20 10:15:07;;;;;;;19.80;3.58;;;8.40;99.90;;;;;;6178923;23;20021;-89
2021/12/20 10:17:54;;;;;;;11.15;2.47;;;8.40;99.90;;;;;;6153987;23;20017;-89
2021/12/20 10:20:23;;;;;;;9.10;2.15;;;8.50;99.90;;;;;;6155122;23;20415;-92
2021/12/20 10:22:51;;;;;;;14.38;2.38;;;8.70;99.90;;;;;;6155395;23;20032;-93
2021/12/20 10:25:24;;;;;;;11.63;2.65;;;8.70;99.90;;;;;;6155467;23;20052;-93
2021/12/20 10:27:50;;;;;;;13.13;2.95;;;8.70;99.90;;;;;;6155965;23;20087;-94
2021/12/20 10:30:26;;;;;;;7.70;2.35;;;8.60;99.90;;;;;;6155473;23;20082;-89
2021/12/20 10:32:53;;;;;;;12.27;2.33;;;8.90;99.90;;;;;;6156057;23;20025;-93
2021/12/20 10:35:26;;;;;;;14.57;2.92;;;9.60;99.90;;;;;;6155082;23;20044;-86
2021/12/20 10:37:57;;;;;;;11.93;2.10;;;8.90;99.90;;;;;;6155228;23;20028;-94
2021/12/20 10:40:24;;;;;;;13.32;2.28;;;8.70;99.90;;;;;;6154133;23;20183;-89
2021/12/20 10:42:51;;;;;;;15.98;2.97;;;8.80;99.90;;;;;;6178941;23;20082;-91
2021/12/20 10:45:20;;;;;;;10.65;2.45;;;9.20;99.90;;;;;;6153617;23;20082;-88
2021/12/20 10:47:48;;;;;;;11.27;2.33;;;8.90;99.90;;;;;;6178617;23;20089;-90
2021/12/20 10:50:20;;;;;;;16.95;2.35;;;10.70;99.90;;;;;;6156131;23;20032;-94
2021/12/20 10:52:47;;;;;;;18.13;2.92;;;9.00;99.90;;;;;;6154466;23;20017;-90
2021/12/20 10:55:12;;;;;;;16.75;2.65;;;9.00;99.90;;;;;;6154903;23;20021;-91
2021/12/20 10:57:46;;;;;;;10.50;2.40;;;10.80;99.90;;;;;;6154492;23;20040;-96
2021/12/20 11:00:19;;;;;;;13.10;2.10;;;8.50;99.90;;;;;;6154783;23;20013;-92
2021/12/20 11:03:24;;;;;;;8.60;2.38;;;9.00;99.90;;;;;;6155253;23;20100;-93
2021/12/20 11:06:14;;;;;;;9.75;2.35;;;7.70;99.90;;;;;;6155872;23;20021;-92
2021/12/20 11:11:25;;;;;;;11.60;2.20;;;10.30;99.90;;;;;;6205476;23;20025;-93
2021/12/20 11:13:51;;;;;;;18.05;2.65;;;9.00;99.90;;;;;;6155964;23;20347;-91
2021/12/20 11:16:33;;;;;;;14.48;2.55;;;10.20;99.90;;;;;;6155603;23;20024;-91
2021/12/20 11:19:15;;;;;;;11.10;2.67;;;9.20;99.90;;;;;;6155851;23;20024;-89
2021/12/20 11:21:56;;;;;;;14.45;2.65;;;8.90;99.90;;;;;;6154916;23;20095;-87
2021/12/20 11:24:43;;;;;;;16.77;2.45;;;9.10;99.90;;;;;;6179302;23;20096;-94
2021/12/20 11:27:12;;;;;;;9.73;2.20;;;9.10;99.90;;;;;;6181193;23;20036;-90
2021/12/20 11:29:40;;;;;;;12.13;2.20;;;8.80;99.90;;;;;;6154206;23;20028;-88
2021/12/20 11:32:08;;;;;;;16.75;2.90;;;9.10;99.90;;;;;;6155352;23;20017;-90
2021/12/20 11:34:34;;;;;;;19.77;2.75;;;8.90;99.90;;;;;;6179690;23;20021;-90
2021/12/20 11:37:03;;;;;;;12.15;2.50;;;10.90;99.90;;;;;;6154867;23;20023;-89
2021/12/20 11:39:29;;;;;;;10.95;2.65;;;10.30;99.90;;;;;;6179965;23;20051;-92
2021/12/20 11:41:57;;;;;;;16.13;2.88;;;9.50;99.90;;;;;;6154582;23;20013;-89
2021/12/20 11:44:27;;;;;;;13.65;2.55;;;9.10;99.90;;;;;;6155359;23;20017;-90
2021/12/20 11:47:06;;;;;;;11.43;2.30;;;9.00;99.90;;;;;;6154864;23;20024;-87
2021/12/20 11:49:32;;;;;;;13.25;2.30;;;9.10;99.90;;;;;;6154976;23;20061;-90
2021/12/20 11:52:02;;;;;;;9.85;2.08;;;10.30;99.90;;;;;;6154733;23;20013;-89
2021/12/20 11:54:40;;;;;;;12.55;2.60;;;9.00;99.90;;;;;;6154934;23;20017;-89
2021/12/20 11:57:29;;;;;;;12.07;2.28;;;9.40;99.90;;;;;;6154746;23;20020;-89
2021/12/20 11:59:57;;;;;;;11.98;2.35;;;9.00;99.90;;;;;;6154609;23;20438;-89
2021/12/20 12:02:27;;;;;;;14.13;2.25;;;9.00;99.90;;;;;;6179454;23;20017;-90
2021/12/20 12:05:11;;;;;;;13.80;2.38;;;9.50;99.90;;;;;;6155602;23;20017;-89
2021/12/20 12:07:39;;;;;;;17.20;2.38;;;9.20;99.90;;;;;;6155655;23;20389;-89
2021/12/20 12:10:08;;;;;;;9.60;2.05;;;9.10;99.90;;;;;;6155881;23;20021;-91
2021/12/20 12:12:40;;;;;;;18.95;3.22;;;9.00;99.90;;;;;;6155968;23;20028;-92
2021/12/20 12:15:11;;;;;;;10.88;2.25;;;11.00;99.90;;;;;;6156331;23;20017;-88
2021/12/20 12:17:53;;;;;;;13.27;2.35;;;9.10;99.90;;;;;;6180103;23;20020;-89
2021/12/20 12:20:44;;;;;;;21.38;3.20;;;9.90;99.90;;;;;;6154563;23;20844;-90
2021/12/20 12:23:18;;;;;;;13.20;2.22;;;11.00;99.90;;;;;;6180647;23;20020;-89
2021/12/20 12:25:59;;;;;;;11.10;2.53;;;9.80;99.90;;;;;;6155385;23;20021;-89
2021/12/20 12:28:27;;;;;;;18.33;2.65;;;9.10;99.90;;;;;;6155005;23;20019;-89
2021/12/20 12:31:07;;;;;;;14.40;2.05;;;9.10;99.90;;;;;;6155672;23;20351;-88
2021/12/20 12:33:38;;;;;;;12.18;2.17;;;9.40;99.90;;;;;;6180001;23;20017;-91
2021/12/20 12:36:21;;;;;;;12.50;2.45;;;10.80;99.90;;;;;;6156225;23;20021;-90
2021/12/20 12:38:46;;;;;;;13.60;2.78;;;9.00;99.90;;;;;;6156026;23;20017;-87
2021/12/20 12:41:18;;;;;;;18.15;2.55;;;9.40;99.90;;;;;;6179972;23;20013;-91
2021/12/20 12:44:01;;;;;;;12.57;2.88;;;9.10;99.90;;;;;;6155527;23;20040;-91
2021/12/20 12:46:43;;;;;;;22.05;2.80;;;9.20;99.90;;;;;;6155220;23;20260;-91
2021/12/20 12:49:20;;;;;;;15.30;2.85;;;10.10;99.90;;;;;;6136554;23;20024;-91
2021/12/20 12:51:48;;;;;;;14.90;2.78;;;9.20;99.90;;;;;;6154845;23;20021;-91
2021/12/20 12:54:32;;;;;;;10.52;2.33;;;9.00;99.90;;;;;;6179563;23;20017;-90
2021/12/20 12:57:10;;;;;;;15.95;2.78;;;11.30;99.90;;;;;;6155195;23;20017;-90
2021/12/20 12:59:42;;;;;;;16.67;2.78;;;9.10;99.90;;;;;;6155004;23;20013;-92
2021/12/20 13:02:10;;;;;;;13.75;2.80;;;10.80;99.90;;;;;;6155787;23;20017;-92
2021/12/20 13:04:47;;;;;;;18.48;3.10;;;9.10;99.90;;;;;;6155126;23;20013;-88
2021/12/20 13:07:18;;;;;;;17.00;3.30;;;9.10;99.90;;;;;;6154880;23;20013;-89
2021/12/20 13:09:45;;;;;;;14.05;2.38;;;10.50;99.90;;;;;;6179695;23;20021;-90